createdAt,value
2018-07-24T00:01:30.143Z,9.90
2018-07-24T00:04:03.619Z,10.80
2018-07-24T00:06:33.974Z,13.00
2018-07-24T00:09:05.457Z,10.90
2018-07-24T00:11:35.847Z,11.73
2018-07-24T00:14:06.272Z,16.50
2018-07-24T00:16:42.821Z,12.10
2018-07-24T00:19:13.256Z,12.07
2018-07-24T00:21:43.580Z,12.13
2018-07-24T00:24:13.985Z,11.87
2018-07-24T00:26:45.168Z,11.33
2018-07-24T00:29:15.578Z,12.40
2018-07-24T00:31:45.982Z,14.67
2018-07-24T00:34:17.154Z,11.37
2018-07-24T00:36:47.483Z,12.10
2018-07-24T00:39:18.069Z,11.43
2018-07-24T00:41:49.254Z,12.20
2018-07-24T00:44:19.647Z,10.60
2018-07-24T00:46:49.977Z,10.63
2018-07-24T00:49:21.179Z,10.33
2018-07-24T00:51:51.586Z,10.00
2018-07-24T00:54:21.981Z,12.37
2018-07-24T00:56:53.181Z,11.57
2018-07-24T00:59:23.577Z,10.50
2018-07-24T01:01:53.973Z,11.00
2018-07-24T01:04:24.392Z,11.00
2018-07-24T01:06:55.562Z,11.90
2018-07-24T01:09:25.966Z,11.37
2018-07-24T01:11:57.173Z,10.30
2018-07-24T01:14:34.035Z,8.57
2018-07-24T01:17:08.559Z,10.50
2018-07-24T01:19:38.960Z,11.00
2018-07-24T01:22:09.285Z,9.90
2018-07-24T01:24:39.713Z,10.47
2018-07-24T01:27:10.113Z,12.40
2018-07-24T01:29:40.440Z,10.47
2018-07-24T01:32:11.563Z,14.27
2018-07-24T01:34:41.959Z,10.40
2018-07-24T01:37:14.385Z,11.50
2018-07-24T01:39:45.563Z,9.47
2018-07-24T01:42:15.965Z,10.23
2018-07-24T01:44:47.112Z,9.40
2018-07-24T01:47:18.484Z,11.23
2018-07-24T01:49:48.869Z,10.07
2018-07-24T01:52:19.260Z,8.97
2018-07-24T01:55:10.081Z,9.37
2018-07-24T01:57:40.482Z,9.40
2018-07-24T02:00:10.894Z,9.03
2018-07-24T02:02:41.355Z,9.20
2018-07-24T02:05:12.697Z,14.13
2018-07-24T02:07:45.147Z,14.13
2018-07-24T02:10:15.557Z,12.73
2018-07-24T02:12:46.722Z,10.30
2018-07-24T02:15:17.106Z,9.90
2018-07-24T02:17:47.471Z,11.87
2018-07-24T02:20:17.876Z,13.47
2018-07-24T02:22:49.036Z,10.07
2018-07-24T02:25:19.471Z,10.20
2018-07-24T02:27:49.857Z,9.50
2018-07-24T02:30:20.254Z,11.03
2018-07-24T02:32:51.430Z,10.07
2018-07-24T02:35:21.804Z,8.47
2018-07-24T02:37:52.199Z,8.40
2018-07-24T02:40:23.381Z,8.80
2018-07-24T02:42:53.781Z,11.80
2018-07-24T02:45:24.171Z,8.67
2018-07-24T02:47:54.587Z,9.33
2018-07-24T02:50:25.630Z,9.00
2018-07-24T02:52:56.011Z,8.90
2018-07-24T02:55:27.450Z,9.53
2018-07-24T02:57:58.619Z,9.20
2018-07-24T03:00:28.998Z,10.00
2018-07-24T03:02:59.417Z,8.73
2018-07-24T03:05:29.810Z,7.90
2018-07-24T03:08:06.360Z,9.30
2018-07-24T03:10:36.697Z,8.87
2018-07-24T03:13:07.088Z,9.90
2018-07-24T03:15:38.267Z,12.07
2018-07-24T03:18:08.683Z,10.07
2018-07-24T03:20:39.066Z,9.03
2018-07-24T03:23:09.664Z,9.67
2018-07-24T03:25:42.727Z,10.87
2018-07-24T03:28:13.132Z,8.20
2018-07-24T03:30:44.258Z,11.90
2018-07-24T03:33:14.644Z,9.40
2018-07-24T03:35:46.062Z,6.97
2018-07-24T03:38:16.478Z,11.23
2018-07-24T03:40:47.645Z,10.53
2018-07-24T03:43:18.042Z,9.67
2018-07-24T03:45:48.470Z,7.80
2018-07-24T03:51:07.376Z,10.90
2018-07-24T03:53:38.535Z,8.30
2018-07-24T03:56:08.924Z,10.43
2018-07-24T03:58:40.121Z,10.20
2018-07-24T04:01:10.520Z,9.57
2018-07-24T04:03:40.907Z,10.87
2018-07-24T04:06:11.314Z,9.97
2018-07-24T04:08:41.687Z,8.47
2018-07-24T04:11:12.835Z,11.23
2018-07-24T04:13:43.271Z,8.83
2018-07-24T04:16:13.673Z,7.20
2018-07-24T04:18:44.247Z,7.13
2018-07-24T04:21:14.672Z,8.27
2018-07-24T04:23:45.080Z,7.47
2018-07-24T04:26:15.408Z,7.83
2018-07-24T04:28:45.832Z,9.57
2018-07-24T04:31:16.158Z,7.90
2018-07-24T04:33:46.549Z,7.50
2018-07-24T04:36:16.955Z,7.27
2018-07-24T04:38:47.353Z,8.40
2018-07-24T04:41:17.743Z,7.37
2018-07-24T04:43:48.928Z,8.60
2018-07-24T04:46:19.335Z,9.40
2018-07-24T04:48:49.729Z,7.17
2018-07-24T04:51:20.147Z,8.67
2018-07-24T04:53:50.537Z,8.73
2018-07-24T04:56:20.917Z,8.80
2018-07-24T04:58:51.338Z,9.43
2018-07-24T05:01:21.720Z,10.27
2018-07-24T05:03:52.093Z,7.20
2018-07-24T05:06:22.523Z,7.53
2018-07-24T05:08:52.933Z,7.80
2018-07-24T05:11:23.324Z,6.97
2018-07-24T05:13:53.744Z,7.47
2018-07-24T05:16:24.144Z,7.47
2018-07-24T05:18:55.317Z,9.33
2018-07-24T05:21:25.747Z,9.47
2018-07-24T05:23:56.119Z,6.90
2018-07-24T05:26:26.511Z,7.90
2018-07-24T05:29:02.042Z,8.80
2018-07-24T05:31:32.422Z,7.87
2018-07-24T05:34:02.807Z,9.27
2018-07-24T05:36:34.245Z,9.73
2018-07-24T05:39:04.632Z,9.30
2018-07-24T05:41:35.032Z,9.97
2018-07-24T05:44:05.460Z,8.47
2018-07-24T05:46:35.857Z,10.67
2018-07-24T05:49:06.237Z,8.13
2018-07-24T05:51:36.661Z,8.10
2018-07-24T05:54:07.047Z,10.17
2018-07-24T05:56:42.526Z,8.80
2018-07-24T05:59:12.889Z,9.00
2018-07-24T06:01:43.283Z,7.90
2018-07-24T06:04:13.673Z,9.67
2018-07-24T06:06:46.149Z,7.97
2018-07-24T06:09:18.580Z,7.30
2018-07-24T06:11:49.740Z,9.40
2018-07-24T06:14:20.180Z,10.63
2018-07-24T06:16:50.600Z,8.47
2018-07-24T06:19:21.653Z,8.33
2018-07-24T06:21:52.102Z,8.77
2018-07-24T06:24:23.181Z,9.47
2018-07-24T06:26:53.577Z,8.63
2018-07-24T06:29:24.077Z,8.90
2018-07-24T06:31:56.105Z,8.57
2018-07-24T06:34:26.512Z,8.60
2018-07-24T06:36:56.949Z,8.23
2018-07-24T06:39:27.281Z,8.00
2018-07-24T06:41:57.649Z,9.30
2018-07-24T06:44:28.110Z,6.73
2018-07-24T06:46:58.448Z,8.00
2018-07-24T06:49:28.844Z,5.43
2018-07-24T06:51:59.327Z,7.50
2018-07-24T06:54:29.633Z,9.70
2018-07-24T06:57:00.033Z,8.63
2018-07-24T06:59:31.151Z,9.18
2018-07-24T07:02:02.572Z,10.23
2018-07-24T07:04:32.951Z,9.57
2018-07-24T07:07:04.519Z,9.77
2018-07-24T07:09:34.909Z,9.43
2018-07-24T07:12:05.234Z,9.30
2018-07-24T07:14:36.978Z,9.20
2018-07-24T07:17:07.275Z,9.63
2018-07-24T07:19:37.657Z,9.17
2018-07-24T07:22:15.317Z,8.50
2018-07-24T07:24:45.722Z,6.83
2018-07-24T07:27:16.120Z,10.17
2018-07-24T07:30:06.098Z,7.87
2018-07-24T07:32:36.480Z,9.37
2018-07-24T07:35:07.646Z,8.17
2018-07-24T07:37:38.061Z,8.87
2018-07-24T07:40:08.377Z,8.07
2018-07-24T07:42:39.535Z,7.83
2018-07-24T07:45:10.010Z,8.83
2018-07-24T07:47:40.365Z,9.87
2018-07-24T07:50:11.548Z,9.90
2018-07-24T07:52:42.271Z,9.37
2018-07-24T07:55:12.656Z,9.93
2018-07-24T07:57:42.986Z,10.47
2018-07-24T08:03:01.873Z,7.73
2018-07-24T08:05:33.060Z,8.20
2018-07-24T08:08:04.470Z,9.40
2018-07-24T08:10:35.651Z,11.63
2018-07-24T08:13:06.067Z,9.67
2018-07-24T08:15:36.463Z,7.63
2018-07-24T08:18:06.841Z,7.63
2018-07-24T08:20:39.303Z,9.60
2018-07-24T08:23:09.679Z,11.00
2018-07-24T08:25:40.060Z,7.93
2018-07-24T08:28:10.513Z,8.37
2018-07-24T08:30:41.604Z,11.33
2018-07-24T08:33:12.766Z,9.70
2018-07-24T08:35:43.189Z,10.83
2018-07-24T08:38:15.628Z,12.77
2018-07-24T08:40:46.209Z,12.20
2018-07-24T08:43:16.636Z,9.20
2018-07-24T08:45:47.023Z,12.53
2018-07-24T08:48:17.405Z,14.00
2018-07-24T08:51:06.162Z,8.50
2018-07-24T08:53:38.874Z,10.50
2018-07-24T08:56:08.986Z,17.70
2018-07-24T08:58:41.453Z,9.53
2018-07-24T09:01:11.774Z,10.83
2018-07-24T09:04:04.389Z,10.70
2018-07-24T09:06:35.521Z,9.90
2018-07-24T09:09:05.885Z,7.97
2018-07-24T09:11:55.666Z,11.67
2018-07-24T09:14:28.087Z,9.10
2018-07-24T09:16:59.233Z,9.60
2018-07-24T09:19:29.662Z,11.47
2018-07-24T09:22:00.051Z,6.77
2018-07-24T09:24:30.410Z,10.97
2018-07-24T09:27:01.676Z,10.73
2018-07-24T09:29:32.042Z,11.53
2018-07-24T09:32:02.451Z,7.73
2018-07-24T09:34:32.827Z,11.83
2018-07-24T09:37:03.212Z,9.53
2018-07-24T09:39:33.610Z,9.13
2018-07-24T09:42:04.006Z,8.10
2018-07-24T09:44:34.395Z,11.87
2018-07-24T09:47:04.961Z,7.07
2018-07-24T09:49:35.376Z,10.83
2018-07-24T09:52:05.745Z,7.70
2018-07-24T09:54:37.856Z,9.23
2018-07-24T09:57:06.559Z,10.73
2018-07-24T09:59:36.940Z,5.70
2018-07-24T10:02:07.319Z,8.37
2018-07-24T10:04:37.715Z,7.80
2018-07-24T10:07:15.397Z,9.37
2018-07-24T10:09:46.805Z,8.27
2018-07-24T10:12:18.020Z,10.37
2018-07-24T10:14:48.377Z,7.37
2018-07-24T10:17:19.553Z,9.57
2018-07-24T10:19:49.942Z,9.80
2018-07-24T10:22:20.419Z,8.57
2018-07-24T10:24:50.686Z,8.33
2018-07-24T10:27:21.006Z,8.77
2018-07-24T10:29:51.404Z,8.10
2018-07-24T10:32:28.973Z,9.37
2018-07-24T10:34:59.349Z,8.43
2018-07-24T10:37:29.745Z,10.07
2018-07-24T10:40:00.240Z,7.93
2018-07-24T10:42:33.633Z,8.70
2018-07-24T10:45:04.038Z,7.93
2018-07-24T10:47:34.433Z,9.87
2018-07-24T10:50:04.826Z,8.90
2018-07-24T10:52:35.212Z,9.03
2018-07-24T10:55:05.610Z,6.97
2018-07-24T10:57:56.136Z,7.00
2018-07-24T11:00:26.520Z,8.03
2018-07-24T11:02:56.918Z,9.03
2018-07-24T11:05:28.333Z,8.27
2018-07-24T11:07:58.740Z,6.57
2018-07-24T11:10:48.514Z,8.53
2018-07-24T11:13:20.971Z,7.80
2018-07-24T11:15:51.364Z,7.90
2018-07-24T11:18:22.505Z,6.80
2018-07-24T11:20:52.906Z,7.20
2018-07-24T11:23:23.285Z,7.33
2018-07-24T11:25:53.684Z,7.73
2018-07-24T11:28:24.095Z,8.97
2018-07-24T11:30:58.563Z,7.73
2018-07-24T11:33:29.788Z,6.80
2018-07-24T11:36:00.323Z,8.33
2018-07-24T11:38:30.511Z,7.50
2018-07-24T11:41:01.918Z,7.13
2018-07-24T11:43:33.077Z,8.20
2018-07-24T11:46:03.458Z,8.73
2018-07-24T11:48:33.782Z,8.40
2018-07-24T11:51:04.186Z,9.83
2018-07-24T11:53:34.507Z,9.70
2018-07-24T11:56:04.887Z,8.53
2018-07-24T11:58:35.308Z,7.13
2018-07-24T12:01:06.725Z,8.47
2018-07-24T12:03:37.152Z,6.80
2018-07-24T12:06:07.567Z,8.87
2018-07-24T12:08:41.015Z,7.77
2018-07-24T12:11:11.406Z,9.30
2018-07-24T12:16:30.101Z,9.37
2018-07-24T12:19:01.279Z,8.83
2018-07-24T12:21:31.650Z,6.77
2018-07-24T12:24:02.075Z,5.80
2018-07-24T12:26:34.509Z,7.67
2018-07-24T12:29:04.889Z,7.83
2018-07-24T12:31:35.453Z,6.40
2018-07-24T12:34:05.873Z,7.30
2018-07-24T12:36:36.247Z,8.87
2018-07-24T12:39:06.567Z,10.23
2018-07-24T12:41:58.000Z,6.00
2018-07-24T12:44:28.379Z,7.43
2018-07-24T12:46:58.692Z,8.57
2018-07-24T12:49:29.107Z,6.03
2018-07-24T12:51:59.508Z,6.03
2018-07-24T12:54:30.085Z,7.20
2018-07-24T12:57:00.504Z,6.30
2018-07-24T12:59:30.822Z,9.10
2018-07-24T13:02:01.972Z,8.37
2018-07-24T13:04:32.390Z,5.77
2018-07-24T13:07:03.569Z,7.17
2018-07-24T13:09:33.932Z,6.27
2018-07-24T13:12:04.528Z,7.60
2018-07-24T13:14:34.919Z,5.77
2018-07-24T13:17:05.296Z,5.57
2018-07-24T13:19:35.735Z,6.00
2018-07-24T13:22:11.215Z,6.70
2018-07-24T13:24:42.498Z,6.03
2018-07-24T13:27:12.746Z,7.83
2018-07-24T13:29:48.201Z,7.30
2018-07-24T13:32:18.616Z,6.43
2018-07-24T13:34:49.013Z,5.87
2018-07-24T13:37:20.062Z,6.80
2018-07-24T13:39:52.482Z,5.33
2018-07-24T13:42:22.888Z,6.13
2018-07-24T13:44:55.382Z,5.73
2018-07-24T13:47:25.739Z,5.87
2018-07-24T13:49:56.126Z,5.67
2018-07-24T13:52:26.557Z,6.87
2018-07-24T13:54:56.926Z,8.33
2018-07-24T13:57:27.315Z,9.20
2018-07-24T13:59:57.719Z,7.23
2018-07-24T14:02:29.128Z,5.57
2018-07-24T14:04:59.508Z,6.23
2018-07-24T14:07:29.922Z,5.67
2018-07-24T14:10:04.404Z,5.27
2018-07-24T14:12:34.725Z,7.20
2018-07-24T14:15:05.841Z,5.67
2018-07-24T14:17:36.229Z,6.27
2018-07-24T14:20:08.660Z,5.23
2018-07-24T14:22:40.866Z,7.40
2018-07-24T14:25:12.214Z,8.03
2018-07-24T14:27:42.605Z,5.43
2018-07-24T14:30:13.775Z,6.23
2018-07-24T14:32:44.099Z,6.90
2018-07-24T14:35:14.497Z,5.67
2018-07-24T14:37:44.907Z,7.87
2018-07-24T14:40:15.350Z,5.50
2018-07-24T14:42:45.680Z,5.23
2018-07-24T14:45:16.859Z,5.50
2018-07-24T14:47:47.249Z,7.30
2018-07-24T14:50:18.409Z,5.97
2018-07-24T14:52:48.857Z,5.00
2018-07-24T14:55:19.973Z,6.90
2018-07-24T14:57:51.143Z,5.83
2018-07-24T15:00:21.546Z,7.33
2018-07-24T15:02:52.701Z,6.33
2018-07-24T15:05:23.017Z,5.47
2018-07-24T15:07:53.423Z,5.57
2018-07-24T15:10:23.993Z,8.10
2018-07-24T15:12:54.406Z,5.20
2018-07-24T15:15:25.600Z,5.57
2018-07-24T15:17:57.009Z,4.90
2018-07-24T15:20:27.323Z,6.63
2018-07-24T15:22:58.508Z,5.90
2018-07-24T15:25:30.867Z,5.23
2018-07-24T15:28:03.292Z,5.70
2018-07-24T15:30:33.708Z,9.43
2018-07-24T15:33:04.087Z,7.93
2018-07-24T15:35:35.494Z,9.00
2018-07-24T15:38:05.924Z,7.87
2018-07-24T15:40:36.304Z,5.93
2018-07-24T15:43:06.701Z,6.27
2018-07-24T15:45:37.101Z,6.47
2018-07-24T15:48:07.477Z,5.90
2018-07-24T15:50:39.917Z,6.57
2018-07-24T15:53:11.283Z,5.80
2018-07-24T15:55:41.686Z,6.13
2018-07-24T15:58:12.066Z,5.37
2018-07-24T16:01:02.312Z,7.10
2018-07-24T16:06:21.969Z,5.27
2018-07-24T16:08:52.279Z,5.87
2018-07-24T16:11:22.643Z,6.70
2018-07-24T16:13:53.057Z,6.60
2018-07-24T16:16:25.486Z,5.43
2018-07-24T16:18:55.875Z,6.23
2018-07-24T16:21:26.282Z,6.33
2018-07-24T16:23:56.660Z,5.40
2018-07-24T16:26:27.044Z,6.00
2018-07-24T16:28:57.443Z,5.57
2018-07-24T16:31:27.952Z,5.83
2018-07-24T16:33:58.336Z,7.60
2018-07-24T16:36:28.754Z,5.93
2018-07-24T16:38:59.140Z,5.37
2018-07-24T16:41:29.546Z,6.27
2018-07-24T16:44:00.031Z,5.37
2018-07-24T16:46:30.359Z,5.50
2018-07-24T16:49:00.751Z,6.83
2018-07-24T16:51:34.220Z,5.03
2018-07-24T16:54:04.620Z,7.43
2018-07-24T16:56:37.788Z,5.77
2018-07-24T16:59:08.200Z,5.23
2018-07-24T17:01:45.739Z,6.43
2018-07-24T17:04:16.916Z,5.83
2018-07-24T17:06:47.296Z,10.13
2018-07-24T17:09:17.684Z,6.67
2018-07-24T17:11:49.049Z,6.20
2018-07-24T17:14:23.517Z,5.57
2018-07-24T17:16:53.907Z,5.50
2018-07-24T17:19:24.310Z,6.67
2018-07-24T17:21:54.705Z,5.77
2018-07-24T17:24:25.867Z,6.07
2018-07-24T17:26:56.287Z,5.20
2018-07-24T17:29:26.601Z,6.40
2018-07-24T17:31:57.080Z,5.80
2018-07-24T17:34:27.423Z,6.80
2018-07-24T17:36:57.801Z,6.80
2018-07-24T17:39:28.416Z,7.03
2018-07-24T17:41:59.613Z,5.50
2018-07-24T17:44:36.130Z,6.07
2018-07-24T17:47:07.276Z,5.70
2018-07-24T17:49:38.389Z,8.30
2018-07-24T17:52:08.775Z,6.27
2018-07-24T17:54:41.224Z,5.83
2018-07-24T17:57:12.417Z,5.70
2018-07-24T17:59:42.839Z,7.60
2018-07-24T18:02:13.217Z,5.30
2018-07-24T18:04:43.624Z,5.23
2018-07-24T18:07:16.664Z,7.50
2018-07-24T18:09:49.124Z,7.87
2018-07-24T18:12:19.501Z,6.23
2018-07-24T18:14:49.978Z,6.13
2018-07-24T18:17:25.622Z,6.90
2018-07-24T18:22:46.903Z,6.70
2018-07-24T18:25:19.944Z,6.23
2018-07-24T18:27:50.343Z,7.93
2018-07-24T18:30:20.749Z,7.40
2018-07-24T18:32:53.846Z,7.00
2018-07-24T18:35:24.231Z,5.67
2018-07-24T18:37:54.837Z,6.03
2018-07-24T18:40:25.985Z,7.73
2018-07-24T18:42:59.004Z,7.97
2018-07-24T18:45:29.406Z,5.57
2018-07-24T18:47:59.803Z,6.80
2018-07-24T18:50:30.170Z,8.23
2018-07-24T18:53:00.524Z,5.77
2018-07-24T18:55:31.937Z,6.13
2018-07-24T18:58:02.260Z,5.57
2018-07-24T19:00:33.370Z,7.23
2018-07-24T19:03:04.618Z,6.43
2018-07-24T19:05:35.006Z,6.87
2018-07-24T19:08:24.499Z,5.87
2018-07-24T19:10:54.894Z,7.83
2018-07-24T19:13:25.273Z,5.80
2018-07-24T19:15:55.701Z,6.03
2018-07-24T19:18:26.020Z,8.90
2018-07-24T19:20:56.417Z,7.70
2018-07-24T19:23:26.755Z,8.10
2018-07-24T19:25:57.149Z,8.63
2018-07-24T19:28:27.466Z,6.47
2018-07-24T19:30:58.917Z,5.67
2018-07-24T19:33:29.301Z,10.13
2018-07-24T19:35:59.684Z,9.07
2018-07-24T19:38:32.982Z,7.97
2018-07-24T19:41:05.937Z,6.80
2018-07-24T19:43:36.318Z,5.83
2018-07-24T19:46:06.728Z,7.03
2018-07-24T19:48:43.272Z,7.27
2018-07-24T19:51:13.687Z,5.53
2018-07-24T19:53:44.094Z,6.37
2018-07-24T19:56:14.479Z,5.70
2018-07-24T19:59:04.292Z,5.67
2018-07-24T20:01:34.673Z,7.10
2018-07-24T20:04:05.047Z,7.00
2018-07-24T20:06:35.463Z,6.03
2018-07-24T20:09:05.836Z,7.57
2018-07-24T20:11:36.218Z,6.33
2018-07-24T20:14:07.662Z,6.83
2018-07-24T20:16:38.113Z,8.00
2018-07-24T20:19:11.508Z,7.90
2018-07-24T20:21:42.874Z,8.97
2018-07-24T20:24:14.018Z,10.07
2018-07-24T20:26:45.165Z,7.20
2018-07-24T20:29:16.273Z,7.30
2018-07-24T20:31:46.676Z,6.60
2018-07-24T20:34:42.190Z,6.43
2018-07-24T20:37:13.505Z,6.43
2018-07-24T20:39:44.660Z,5.83
2018-07-24T20:42:15.068Z,6.13
2018-07-24T20:44:46.209Z,6.27
2018-07-24T20:47:16.607Z,7.87
2018-07-24T20:49:49.700Z,7.30
2018-07-24T20:52:20.099Z,6.03
2018-07-24T20:54:50.479Z,7.07
2018-07-24T20:57:20.887Z,8.30
2018-07-24T20:59:52.315Z,6.37
2018-07-24T21:02:22.693Z,8.90
2018-07-24T21:04:53.880Z,7.20
2018-07-24T21:07:24.253Z,7.47
2018-07-24T21:09:54.652Z,6.27
2018-07-24T21:12:27.699Z,8.63
2018-07-24T21:14:58.096Z,7.83
2018-07-24T21:17:29.255Z,8.07
2018-07-24T21:19:59.654Z,8.43
2018-07-24T21:22:30.051Z,8.67
2018-07-24T21:25:03.513Z,7.93
2018-07-24T21:27:33.919Z,8.20
2018-07-24T21:30:05.080Z,9.30
2018-07-24T21:32:35.461Z,7.00
2018-07-24T21:35:05.871Z,7.33
2018-07-24T21:37:36.267Z,7.37
2018-07-24T21:40:06.657Z,7.40
2018-07-24T21:42:37.214Z,9.17
2018-07-24T21:45:09.516Z,8.00
2018-07-24T21:47:39.913Z,8.97
2018-07-24T21:50:11.356Z,8.23
2018-07-24T21:52:41.738Z,8.70
2018-07-24T21:55:12.054Z,8.53
2018-07-24T21:58:02.864Z,9.47
2018-07-24T22:00:33.256Z,10.73
2018-07-24T22:03:03.646Z,9.73
2018-07-24T22:05:34.055Z,9.33
2018-07-24T22:08:04.442Z,9.17
2018-07-24T22:10:34.823Z,8.40
2018-07-24T22:13:05.247Z,8.80
2018-07-24T22:15:35.632Z,9.37
2018-07-24T22:18:06.089Z,11.70
2018-07-24T22:20:36.462Z,7.57
2018-07-24T22:23:08.575Z,9.03
2018-07-24T22:25:38.964Z,8.73
2018-07-24T22:28:09.305Z,10.07
2018-07-24T22:30:40.727Z,8.20
2018-07-24T22:33:11.883Z,9.03
2018-07-24T22:35:42.300Z,6.73
2018-07-24T22:41:07.085Z,7.80
2018-07-24T22:43:37.477Z,8.63
2018-07-24T22:46:07.858Z,10.23
2018-07-24T22:48:39.042Z,11.30
2018-07-24T22:51:10.452Z,8.83
2018-07-24T22:53:41.781Z,9.13
2018-07-24T22:56:12.175Z,11.10
2018-07-24T22:58:44.598Z,9.60
2018-07-24T23:01:15.747Z,8.87
2018-07-24T23:03:47.170Z,8.97
2018-07-24T23:06:17.570Z,8.93
2018-07-24T23:08:47.959Z,7.90
2018-07-24T23:11:19.072Z,8.87
2018-07-24T23:13:49.468Z,7.17
2018-07-24T23:16:39.255Z,10.27
2018-07-24T23:19:29.008Z,8.40
2018-07-24T23:21:59.456Z,8.23
2018-07-24T23:24:30.617Z,7.47
2018-07-24T23:27:01.000Z,6.63
2018-07-24T23:29:31.440Z,7.73
2018-07-24T23:32:01.822Z,9.43
2018-07-24T23:34:32.218Z,11.07
2018-07-24T23:37:04.690Z,10.50
2018-07-24T23:39:55.211Z,8.97
2018-07-24T23:42:25.874Z,8.87
2018-07-24T23:44:56.960Z,9.30
2018-07-24T23:47:49.545Z,7.60
2018-07-24T23:50:19.927Z,9.80
2018-07-24T23:52:51.322Z,8.83
2018-07-24T23:55:21.739Z,7.57
2018-07-24T23:57:52.135Z,8.00
